sensor_id;sensor_type;location;lat;lon;timestamp;P1;durP1;ratioP1;P2;durP2;ratioP2
10126;SDS011;13080;42.608;23.362;2022-07-05T00:00:56;3.75;;;2.03;;
10126;SDS011;13080;42.608;23.362;2022-07-05T00:03:22;2.83;;;2.20;;
10126;SDS011;13080;42.608;23.362;2022-07-05T00:05:51;3.28;;;1.85;;
10126;SDS011;13080;42.608;23.362;2022-07-05T00:08:18;3.38;;;1.58;;
10126;SDS011;13080;42.608;23.362;2022-07-05T00:10:45;5.13;;;2.00;;
10126;SDS011;13080;42.608;23.362;2022-07-05T00:13:12;4.28;;;1.70;;
10126;SDS011;13080;42.608;23.362;2022-07-05T00:15:39;5.50;;;2.13;;
10126;SDS011;13080;42.608;23.362;2022-07-05T00:18:06;6.95;;;2.20;;
10126;SDS011;13080;42.608;23.362;2022-07-05T00:20:33;2.95;;;1.60;;
10126;SDS011;13080;42.608;23.362;2022-07-05T00:23:02;2.30;;;2.10;;
10126;SDS011;13080;42.608;23.362;2022-07-05T00:25:28;3.88;;;2.28;;
10126;SDS011;13080;42.608;23.362;2022-07-05T00:27:55;1.88;;;1.77;;
10126;SDS011;13080;42.608;23.362;2022-07-05T00:30:22;3.22;;;2.03;;
10126;SDS011;13080;42.608;23.362;2022-07-05T00:32:49;2.47;;;2.22;;
10126;SDS011;13080;42.608;23.362;2022-07-05T00:35:16;2.33;;;2.13;;
10126;SDS011;13080;42.608;23.362;2022-07-05T00:37:42;2.65;;;2.00;;
10126;SDS011;13080;42.608;23.362;2022-07-05T00:40:11;3.28;;;2.10;;
10126;SDS011;13080;42.608;23.362;2022-07-05T00:42:38;2.63;;;2.20;;
10126;SDS011;13080;42.608;23.362;2022-07-05T00:45:05;3.80;;;2.78;;
10126;SDS011;13080;42.608;23.362;2022-07-05T00:47:33;4.70;;;2.42;;
10126;SDS011;13080;42.608;23.362;2022-07-05T00:50:00;6.30;;;2.40;;
10126;SDS011;13080;42.608;23.362;2022-07-05T00:52:26;5.85;;;3.83;;
10126;SDS011;13080;42.608;23.362;2022-07-05T00:54:53;8.98;;;6.82;;
10126;SDS011;13080;42.608;23.362;2022-07-05T00:57:22;9.07;;;5.93;;
10126;SDS011;13080;42.608;23.362;2022-07-05T00:59:49;10.88;;;5.10;;
10126;SDS011;13080;42.608;23.362;2022-07-05T01:02:16;5.90;;;4.00;;
10126;SDS011;13080;42.608;23.362;2022-07-05T01:04:45;2.83;;;2.50;;
10126;SDS011;13080;42.608;23.362;2022-07-05T01:07:13;3.47;;;2.88;;
10126;SDS011;13080;42.608;23.362;2022-07-05T01:09:40;5.30;;;3.22;;
10126;SDS011;13080;42.608;23.362;2022-07-05T01:12:08;4.55;;;2.80;;
10126;SDS011;13080;42.608;23.362;2022-07-05T01:14:36;4.90;;;3.35;;
10126;SDS011;13080;42.608;23.362;2022-07-05T01:17:03;5.78;;;3.25;;
10126;SDS011;13080;42.608;23.362;2022-07-05T01:19:30;3.22;;;2.92;;
10126;SDS011;13080;42.608;23.362;2022-07-05T01:21:57;6.72;;;2.90;;
10126;SDS011;13080;42.608;23.362;2022-07-05T01:24:30;6.45;;;3.08;;
10126;SDS011;13080;42.608;23.362;2022-07-05T01:26:57;2.85;;;2.50;;
10126;SDS011;13080;42.608;23.362;2022-07-05T01:29:24;3.63;;;2.67;;
10126;SDS011;13080;42.608;23.362;2022-07-05T01:31:51;5.72;;;2.63;;
10126;SDS011;13080;42.608;23.362;2022-07-05T01:34:37;4.80;;;3.08;;
10126;SDS011;13080;42.608;23.362;2022-07-05T01:37:05;3.30;;;3.00;;
10126;SDS011;13080;42.608;23.362;2022-07-05T01:39:34;4.63;;;2.80;;
10126;SDS011;13080;42.608;23.362;2022-07-05T01:42:01;10.13;;;4.10;;
10126;SDS011;13080;42.608;23.362;2022-07-05T01:44:29;13.50;;;6.57;;
10126;SDS011;13080;42.608;23.362;2022-07-05T01:46:58;7.65;;;5.15;;
10126;SDS011;13080;42.608;23.362;2022-07-05T01:49:29;7.57;;;4.30;;
10126;SDS011;13080;42.608;23.362;2022-07-05T01:52:02;3.55;;;2.97;;
10126;SDS011;13080;42.608;23.362;2022-07-05T01:54:35;3.78;;;3.13;;
10126;SDS011;13080;42.608;23.362;2022-07-05T01:57:03;4.78;;;2.60;;
10126;SDS011;13080;42.608;23.362;2022-07-05T01:59:31;2.83;;;2.50;;
10126;SDS011;13080;42.608;23.362;2022-07-05T02:01:58;3.45;;;2.20;;
10126;SDS011;13080;42.608;23.362;2022-07-05T02:04:26;8.68;;;2.78;;
10126;SDS011;13080;42.608;23.362;2022-07-05T02:06:54;3.17;;;2.40;;
10126;SDS011;13080;42.608;23.362;2022-07-05T02:09:21;2.90;;;2.60;;
10126;SDS011;13080;42.608;23.362;2022-07-05T02:11:49;6.47;;;2.60;;
10126;SDS011;13080;42.608;23.362;2022-07-05T02:14:17;3.72;;;3.10;;
10126;SDS011;13080;42.608;23.362;2022-07-05T02:16:44;3.65;;;2.75;;
10126;SDS011;13080;42.608;23.362;2022-07-05T02:19:11;7.32;;;2.90;;
10126;SDS011;13080;42.608;23.362;2022-07-05T02:21:38;2.63;;;2.42;;
10126;SDS011;13080;42.608;23.362;2022-07-05T02:24:05;8.05;;;3.25;;
10126;SDS011;13080;42.608;23.362;2022-07-05T02:26:33;6.10;;;2.85;;
10126;SDS011;13080;42.608;23.362;2022-07-05T02:29:01;2.88;;;2.60;;
10126;SDS011;13080;42.608;23.362;2022-07-05T02:31:29;4.60;;;2.35;;
10126;SDS011;13080;42.608;23.362;2022-07-05T02:33:56;7.65;;;4.95;;
10126;SDS011;13080;42.608;23.362;2022-07-05T02:36:23;8.95;;;5.97;;
10126;SDS011;13080;42.608;23.362;2022-07-05T02:38:50;9.18;;;4.85;;
10126;SDS011;13080;42.608;23.362;2022-07-05T02:41:17;8.02;;;3.05;;
10126;SDS011;13080;42.608;23.362;2022-07-05T02:43:44;5.30;;;3.15;;
10126;SDS011;13080;42.608;23.362;2022-07-05T02:46:12;3.05;;;2.60;;
10126;SDS011;13080;42.608;23.362;2022-07-05T02:48:39;3.28;;;2.80;;
10126;SDS011;13080;42.608;23.362;2022-07-05T02:51:06;2.50;;;2.30;;
10126;SDS011;13080;42.608;23.362;2022-07-05T02:53:33;3.50;;;2.67;;
10126;SDS011;13080;42.608;23.362;2022-07-05T02:56:00;5.07;;;2.65;;
10126;SDS011;13080;42.608;23.362;2022-07-05T02:58:27;3.08;;;2.60;;
10126;SDS011;13080;42.608;23.362;2022-07-05T03:00:54;6.03;;;2.92;;
10126;SDS011;13080;42.608;23.362;2022-07-05T03:03:22;5.15;;;2.75;;
10126;SDS011;13080;42.608;23.362;2022-07-05T03:05:49;4.05;;;2.80;;
10126;SDS011;13080;42.608;23.362;2022-07-05T03:08:16;5.40;;;2.72;;
10126;SDS011;13080;42.608;23.362;2022-07-05T03:10:43;4.00;;;3.13;;
10126;SDS011;13080;42.608;23.362;2022-07-05T03:13:09;3.33;;;2.70;;
10126;SDS011;13080;42.608;23.362;2022-07-05T03:15:36;3.67;;;2.70;;
10126;SDS011;13080;42.608;23.362;2022-07-05T03:18:03;3.60;;;2.50;;
10126;SDS011;13080;42.608;23.362;2022-07-05T03:20:31;2.88;;;2.58;;
10126;SDS011;13080;42.608;23.362;2022-07-05T03:22:58;5.93;;;2.53;;
10126;SDS011;13080;42.608;23.362;2022-07-05T03:25:25;5.88;;;3.28;;
10126;SDS011;13080;42.608;23.362;2022-07-05T03:27:52;2.50;;;2.30;;
10126;SDS011;13080;42.608;23.362;2022-07-05T03:30:19;2.80;;;2.50;;
10126;SDS011;13080;42.608;23.362;2022-07-05T03:32:46;3.80;;;2.85;;
10126;SDS011;13080;42.608;23.362;2022-07-05T03:35:13;3.03;;;2.65;;
10126;SDS011;13080;42.608;23.362;2022-07-05T03:37:41;2.90;;;2.58;;
10126;SDS011;13080;42.608;23.362;2022-07-05T03:40:08;6.78;;;4.20;;
10126;SDS011;13080;42.608;23.362;2022-07-05T03:42:35;5.20;;;3.33;;
10126;SDS011;13080;42.608;23.362;2022-07-05T03:45:02;6.32;;;2.40;;
10126;SDS011;13080;42.608;23.362;2022-07-05T03:47:29;4.28;;;1.90;;
10126;SDS011;13080;42.608;23.362;2022-07-05T03:49:56;7.50;;;2.80;;
10126;SDS011;13080;42.608;23.362;2022-07-05T03:52:23;3.53;;;2.28;;
10126;SDS011;13080;42.608;23.362;2022-07-05T03:54:51;2.35;;;2.05;;
10126;SDS011;13080;42.608;23.362;2022-07-05T03:57:18;2.58;;;2.22;;
10126;SDS011;13080;42.608;23.362;2022-07-05T03:59:45;3.67;;;2.05;;
10126;SDS011;13080;42.608;23.362;2022-07-05T04:02:12;2.45;;;1.92;;
10126;SDS011;13080;42.608;23.362;2022-07-05T04:04:39;3.28;;;2.35;;
10126;SDS011;13080;42.608;23.362;2022-07-05T04:07:06;6.75;;;2.60;;
10126;SDS011;13080;42.608;23.362;2022-07-05T04:09:32;3.88;;;2.75;;
10126;SDS011;13080;42.608;23.362;2022-07-05T04:12:01;4.25;;;2.60;;
10126;SDS011;13080;42.608;23.362;2022-07-05T04:14:27;7.80;;;2.70;;
10126;SDS011;13080;42.608;23.362;2022-07-05T04:16:54;3.47;;;2.03;;
10126;SDS011;13080;42.608;23.362;2022-07-05T04:19:21;5.40;;;2.55;;
10126;SDS011;13080;42.608;23.362;2022-07-05T04:21:48;2.85;;;2.30;;
10126;SDS011;13080;42.608;23.362;2022-07-05T04:24:15;2.65;;;1.92;;
10126;SDS011;13080;42.608;23.362;2022-07-05T04:26:42;2.35;;;1.90;;
10126;SDS011;13080;42.608;23.362;2022-07-05T04:29:10;3.72;;;2.63;;
10126;SDS011;13080;42.608;23.362;2022-07-05T04:31:37;4.40;;;3.03;;
10126;SDS011;13080;42.608;23.362;2022-07-05T04:34:04;4.20;;;2.75;;
10126;SDS011;13080;42.608;23.362;2022-07-05T04:36:30;5.30;;;2.75;;
10126;SDS011;13080;42.608;23.362;2022-07-05T04:38:57;3.08;;;2.55;;
10126;SDS011;13080;42.608;23.362;2022-07-05T04:41:24;2.75;;;2.55;;
10126;SDS011;13080;42.608;23.362;2022-07-05T04:43:51;4.47;;;2.83;;
10126;SDS011;13080;42.608;23.362;2022-07-05T04:46:19;7.00;;;3.30;;
10126;SDS011;13080;42.608;23.362;2022-07-05T04:48:46;6.18;;;3.60;;
10126;SDS011;13080;42.608;23.362;2022-07-05T04:51:13;6.15;;;3.40;;
10126;SDS011;13080;42.608;23.362;2022-07-05T04:53:40;3.75;;;3.20;;
10126;SDS011;13080;42.608;23.362;2022-07-05T04:56:07;5.45;;;3.17;;
10126;SDS011;13080;42.608;23.362;2022-07-05T04:58:34;6.35;;;3.70;;
10126;SDS011;13080;42.608;23.362;2022-07-05T05:01:01;5.15;;;3.78;;
10126;SDS011;13080;42.608;23.362;2022-07-05T05:03:29;3.65;;;3.35;;
10126;SDS011;13080;42.608;23.362;2022-07-05T05:05:56;4.15;;;3.00;;
10126;SDS011;13080;42.608;23.362;2022-07-05T05:08:22;6.78;;;3.72;;
10126;SDS011;13080;42.608;23.362;2022-07-05T05:10:49;4.57;;;3.65;;
10126;SDS011;13080;42.608;23.362;2022-07-05T05:13:16;6.53;;;3.83;;
10126;SDS011;13080;42.608;23.362;2022-07-05T05:15:43;4.53;;;3.38;;
10126;SDS011;13080;42.608;23.362;2022-07-05T05:18:10;6.97;;;3.67;;
10126;SDS011;13080;42.608;23.362;2022-07-05T05:20:39;4.32;;;3.35;;
10126;SDS011;13080;42.608;23.362;2022-07-05T05:23:06;7.25;;;4.07;;
10126;SDS011;13080;42.608;23.362;2022-07-05T05:25:33;7.95;;;3.45;;
10126;SDS011;13080;42.608;23.362;2022-07-05T05:28:01;4.63;;;3.78;;
10126;SDS011;13080;42.608;23.362;2022-07-05T05:30:28;6.70;;;3.75;;
10126;SDS011;13080;42.608;23.362;2022-07-05T05:32:55;9.20;;;3.58;;
10126;SDS011;13080;42.608;23.362;2022-07-05T05:35:22;8.52;;;3.33;;
10126;SDS011;13080;42.608;23.362;2022-07-05T05:37:51;4.28;;;3.53;;
10126;SDS011;13080;42.608;23.362;2022-07-05T05:40:18;4.80;;;3.30;;
10126;SDS011;13080;42.608;23.362;2022-07-05T05:42:45;4.72;;;3.55;;
10126;SDS011;13080;42.608;23.362;2022-07-05T05:45:13;6.75;;;3.88;;
10126;SDS011;13080;42.608;23.362;2022-07-05T05:47:44;6.80;;;3.70;;
10126;SDS011;13080;42.608;23.362;2022-07-05T05:50:11;6.53;;;3.75;;
10126;SDS011;13080;42.608;23.362;2022-07-05T05:52:38;4.85;;;3.35;;
10126;SDS011;13080;42.608;23.362;2022-07-05T05:55:07;5.05;;;3.58;;
10126;SDS011;13080;42.608;23.362;2022-07-05T05:57:34;7.85;;;3.75;;
10126;SDS011;13080;42.608;23.362;2022-07-05T06:02:06;4.40;;;3.58;;
10126;SDS011;13080;42.608;23.362;2022-07-05T06:04:33;5.03;;;3.10;;
10126;SDS011;13080;42.608;23.362;2022-07-05T06:07:00;5.13;;;3.22;;
10126;SDS011;13080;42.608;23.362;2022-07-05T06:09:26;5.32;;;3.20;;
10126;SDS011;13080;42.608;23.362;2022-07-05T06:11:53;4.50;;;3.42;;
10126;SDS011;13080;42.608;23.362;2022-07-05T06:14:20;8.85;;;3.17;;
10126;SDS011;13080;42.608;23.362;2022-07-05T06:16:47;5.47;;;3.75;;
10126;SDS011;13080;42.608;23.362;2022-07-05T06:19:15;6.93;;;3.20;;
10126;SDS011;13080;42.608;23.362;2022-07-05T06:21:42;11.60;;;3.90;;
10126;SDS011;13080;42.608;23.362;2022-07-05T06:24:08;7.65;;;3.63;;
10126;SDS011;13080;42.608;23.362;2022-07-05T06:26:35;6.68;;;3.75;;
10126;SDS011;13080;42.608;23.362;2022-07-05T06:29:02;9.05;;;3.65;;
10126;SDS011;13080;42.608;23.362;2022-07-05T06:31:29;6.28;;;3.33;;
10126;SDS011;13080;42.608;23.362;2022-07-05T06:33:55;7.57;;;3.50;;
10126;SDS011;13080;42.608;23.362;2022-07-05T06:36:24;6.05;;;3.28;;
10126;SDS011;13080;42.608;23.362;2022-07-05T06:38:50;3.60;;;3.15;;
10126;SDS011;13080;42.608;23.362;2022-07-05T06:41:17;7.45;;;3.53;;
10126;SDS011;13080;42.608;23.362;2022-07-05T06:43:44;5.38;;;3.20;;
10126;SDS011;13080;42.608;23.362;2022-07-05T06:46:11;8.27;;;3.25;;
10126;SDS011;13080;42.608;23.362;2022-07-05T06:48:37;6.10;;;3.45;;
10126;SDS011;13080;42.608;23.362;2022-07-05T06:51:04;4.70;;;3.25;;
10126;SDS011;13080;42.608;23.362;2022-07-05T06:53:33;13.50;;;3.53;;
10126;SDS011;13080;42.608;23.362;2022-07-05T06:56:00;17.30;;;3.38;;
10126;SDS011;13080;42.608;23.362;2022-07-05T06:58:27;9.13;;;3.58;;
10126;SDS011;13080;42.608;23.362;2022-07-05T07:00:54;7.82;;;3.80;;
10126;SDS011;13080;42.608;23.362;2022-07-05T07:03:21;9.18;;;3.72;;
10126;SDS011;13080;42.608;23.362;2022-07-05T07:05:48;5.03;;;3.60;;
10126;SDS011;13080;42.608;23.362;2022-07-05T07:08:15;11.40;;;3.67;;
10126;SDS011;13080;42.608;23.362;2022-07-05T07:11:01;5.95;;;3.47;;
10126;SDS011;13080;42.608;23.362;2022-07-05T07:13:28;7.35;;;3.53;;
10126;SDS011;13080;42.608;23.362;2022-07-05T07:15:55;12.75;;;3.60;;
10126;SDS011;13080;42.608;23.362;2022-07-05T07:18:22;4.55;;;3.20;;
10126;SDS011;13080;42.608;23.362;2022-07-05T07:20:49;5.88;;;3.10;;
10126;SDS011;13080;42.608;23.362;2022-07-05T07:23:15;7.78;;;3.53;;
10126;SDS011;13080;42.608;23.362;2022-07-05T07:25:42;7.75;;;4.03;;
10126;SDS011;13080;42.608;23.362;2022-07-05T07:28:10;5.07;;;3.30;;
10126;SDS011;13080;42.608;23.362;2022-07-05T07:30:37;11.77;;;3.25;;
10126;SDS011;13080;42.608;23.362;2022-07-05T07:33:04;8.25;;;3.25;;
10126;SDS011;13080;42.608;23.362;2022-07-05T07:35:31;9.02;;;3.10;;
10126;SDS011;13080;42.608;23.362;2022-07-05T07:37:58;10.55;;;3.85;;
10126;SDS011;13080;42.608;23.362;2022-07-05T07:40:24;14.25;;;3.35;;
10126;SDS011;13080;42.608;23.362;2022-07-05T07:42:51;6.88;;;3.75;;
10126;SDS011;13080;42.608;23.362;2022-07-05T07:45:19;7.93;;;3.97;;
10126;SDS011;13080;42.608;23.362;2022-07-05T07:47:46;7.10;;;3.70;;
10126;SDS011;13080;42.608;23.362;2022-07-05T07:50:13;7.28;;;3.47;;
10126;SDS011;13080;42.608;23.362;2022-07-05T07:52:40;6.15;;;3.40;;
10126;SDS011;13080;42.608;23.362;2022-07-05T07:55:07;11.20;;;3.50;;
10126;SDS011;13080;42.608;23.362;2022-07-05T07:57:34;7.95;;;3.45;;
10126;SDS011;13080;42.608;23.362;2022-07-05T08:00:01;7.15;;;3.35;;
10126;SDS011;13080;42.608;23.362;2022-07-05T08:02:30;9.32;;;3.50;;
10126;SDS011;13080;42.608;23.362;2022-07-05T08:04:56;6.38;;;3.17;;
10126;SDS011;13080;42.608;23.362;2022-07-05T08:07:24;7.95;;;3.40;;
10126;SDS011;13080;42.608;23.362;2022-07-05T08:09:50;9.13;;;3.80;;
10126;SDS011;13080;42.608;23.362;2022-07-05T08:12:18;6.68;;;3.63;;
10126;SDS011;13080;42.608;23.362;2022-07-05T08:14:45;8.60;;;3.85;;
10126;SDS011;13080;42.608;23.362;2022-07-05T08:17:12;5.22;;;3.90;;
10126;SDS011;13080;42.608;23.362;2022-07-05T08:19:40;8.02;;;3.05;;
10126;SDS011;13080;42.608;23.362;2022-07-05T08:22:24;5.97;;;3.90;;
10126;SDS011;13080;42.608;23.362;2022-07-05T08:24:51;6.25;;;3.28;;
10126;SDS011;13080;42.608;23.362;2022-07-05T08:27:18;11.60;;;3.30;;
10126;SDS011;13080;42.608;23.362;2022-07-05T08:29:45;9.93;;;3.65;;
10126;SDS011;13080;42.608;23.362;2022-07-05T08:32:11;5.22;;;3.10;;
10126;SDS011;13080;42.608;23.362;2022-07-05T08:34:40;5.32;;;3.60;;
10126;SDS011;13080;42.608;23.362;2022-07-05T08:37:07;4.85;;;3.47;;
10126;SDS011;13080;42.608;23.362;2022-07-05T08:39:34;4.80;;;3.25;;
10126;SDS011;13080;42.608;23.362;2022-07-05T08:42:01;3.90;;;3.33;;
10126;SDS011;13080;42.608;23.362;2022-07-05T08:44:29;5.68;;;2.92;;
10126;SDS011;13080;42.608;23.362;2022-07-05T08:47:01;7.25;;;3.50;;
10126;SDS011;13080;42.608;23.362;2022-07-05T08:49:29;4.28;;;3.05;;
10126;SDS011;13080;42.608;23.362;2022-07-05T08:52:00;4.55;;;3.13;;
10126;SDS011;13080;42.608;23.362;2022-07-05T08:54:30;5.10;;;3.08;;
10126;SDS011;13080;42.608;23.362;2022-07-05T08:56:57;5.53;;;3.33;;
10126;SDS011;13080;42.608;23.362;2022-07-05T08:59:23;7.10;;;3.33;;
10126;SDS011;13080;42.608;23.362;2022-07-05T09:01:50;7.15;;;3.97;;
10126;SDS011;13080;42.608;23.362;2022-07-05T09:04:18;5.80;;;3.38;;
10126;SDS011;13080;42.608;23.362;2022-07-05T09:06:48;6.53;;;3.33;;
10126;SDS011;13080;42.608;23.362;2022-07-05T09:09:18;8.40;;;3.33;;
10126;SDS011;13080;42.608;23.362;2022-07-05T09:11:45;7.43;;;3.05;;
10126;SDS011;13080;42.608;23.362;2022-07-05T09:14:18;5.55;;;3.42;;
10126;SDS011;13080;42.608;23.362;2022-07-05T09:16:47;5.65;;;3.05;;
10126;SDS011;13080;42.608;23.362;2022-07-05T09:19:14;6.55;;;3.30;;
10126;SDS011;13080;42.608;23.362;2022-07-05T09:21:41;5.88;;;3.17;;
10126;SDS011;13080;42.608;23.362;2022-07-05T09:24:08;6.07;;;3.38;;
10126;SDS011;13080;42.608;23.362;2022-07-05T09:26:38;3.70;;;3.08;;
10126;SDS011;13080;42.608;23.362;2022-07-05T09:29:07;6.55;;;3.47;;
10126;SDS011;13080;42.608;23.362;2022-07-05T09:31:36;6.80;;;3.42;;
10126;SDS011;13080;42.608;23.362;2022-07-05T09:34:04;9.25;;;3.22;;
10126;SDS011;13080;42.608;23.362;2022-07-05T09:36:48;3.67;;;2.83;;
10126;SDS011;13080;42.608;23.362;2022-07-05T09:39:34;5.55;;;3.47;;
10126;SDS011;13080;42.608;23.362;2022-07-05T09:42:10;4.15;;;3.45;;
10126;SDS011;13080;42.608;23.362;2022-07-05T09:44:43;7.82;;;3.00;;
10126;SDS011;13080;42.608;23.362;2022-07-05T09:47:11;5.65;;;3.72;;
10126;SDS011;13080;42.608;23.362;2022-07-05T09:49:41;6.63;;;3.20;;
10126;SDS011;13080;42.608;23.362;2022-07-05T09:52:09;6.72;;;3.42;;
10126;SDS011;13080;42.608;23.362;2022-07-05T09:54:36;3.63;;;3.33;;
10126;SDS011;13080;42.608;23.362;2022-07-05T09:57:04;7.60;;;2.90;;
10126;SDS011;13080;42.608;23.362;2022-07-05T09:59:32;5.15;;;3.30;;
10126;SDS011;13080;42.608;23.362;2022-07-05T10:01:59;5.60;;;3.60;;
10126;SDS011;13080;42.608;23.362;2022-07-05T10:04:25;4.25;;;3.15;;
10126;SDS011;13080;42.608;23.362;2022-07-05T10:06:52;4.32;;;3.50;;
10126;SDS011;13080;42.608;23.362;2022-07-05T10:09:19;3.75;;;3.35;;
10126;SDS011;13080;42.608;23.362;2022-07-05T10:11:47;6.32;;;3.35;;
10126;SDS011;13080;42.608;23.362;2022-07-05T10:14:17;3.40;;;3.10;;
10126;SDS011;13080;42.608;23.362;2022-07-05T10:16:50;3.60;;;3.10;;
10126;SDS011;13080;42.608;23.362;2022-07-05T10:19:22;3.78;;;3.47;;
10126;SDS011;13080;42.608;23.362;2022-07-05T10:21:54;7.18;;;3.50;;
10126;SDS011;13080;42.608;23.362;2022-07-05T10:24:21;4.75;;;3.17;;
10126;SDS011;13080;42.608;23.362;2022-07-05T10:26:48;4.47;;;3.40;;
10126;SDS011;13080;42.608;23.362;2022-07-05T10:29:16;3.88;;;3.03;;
10126;SDS011;13080;42.608;23.362;2022-07-05T10:31:43;4.45;;;3.00;;
10126;SDS011;13080;42.608;23.362;2022-07-05T10:34:13;4.82;;;3.38;;
10126;SDS011;13080;42.608;23.362;2022-07-05T10:36:40;3.65;;;3.03;;
10126;SDS011;13080;42.608;23.362;2022-07-05T10:39:08;3.60;;;3.13;;
10126;SDS011;13080;42.608;23.362;2022-07-05T10:41:36;3.53;;;3.22;;
10126;SDS011;13080;42.608;23.362;2022-07-05T10:44:05;5.15;;;3.58;;
10126;SDS011;13080;42.608;23.362;2022-07-05T10:46:33;5.93;;;3.13;;
10126;SDS011;13080;42.608;23.362;2022-07-05T10:49:14;3.58;;;2.88;;
10126;SDS011;13080;42.608;23.362;2022-07-05T10:51:42;3.75;;;3.25;;
10126;SDS011;13080;42.608;23.362;2022-07-05T10:54:10;4.50;;;2.78;;
10126;SDS011;13080;42.608;23.362;2022-07-05T10:56:36;8.52;;;3.15;;
10126;SDS011;13080;42.608;23.362;2022-07-05T10:59:04;5.72;;;3.08;;
10126;SDS011;13080;42.608;23.362;2022-07-05T11:01:34;5.30;;;3.20;;
10126;SDS011;13080;42.608;23.362;2022-07-05T11:06:59;4.53;;;3.50;;
10126;SDS011;13080;42.608;23.362;2022-07-05T11:09:26;8.07;;;3.70;;
10126;SDS011;13080;42.608;23.362;2022-07-05T11:12:03;4.32;;;3.47;;
10126;SDS011;13080;42.608;23.362;2022-07-05T11:14:37;3.92;;;3.38;;
10126;SDS011;13080;42.608;23.362;2022-07-05T11:17:18;6.70;;;3.28;;
10126;SDS011;13080;42.608;23.362;2022-07-05T11:20:02;7.05;;;3.63;;
10126;SDS011;13080;42.608;23.362;2022-07-05T11:22:31;6.47;;;3.55;;
10126;SDS011;13080;42.608;23.362;2022-07-05T11:24:59;5.28;;;3.80;;
10126;SDS011;13080;42.608;23.362;2022-07-05T11:27:27;3.78;;;3.08;;
10126;SDS011;13080;42.608;23.362;2022-07-05T11:29:54;4.03;;;2.72;;
10126;SDS011;13080;42.608;23.362;2022-07-05T11:32:23;7.35;;;3.30;;
10126;SDS011;13080;42.608;23.362;2022-07-05T11:35:12;3.22;;;2.92;;
10126;SDS011;13080;42.608;23.362;2022-07-05T11:40:30;5.63;;;3.13;;
10126;SDS011;13080;42.608;23.362;2022-07-05T11:42:58;4.65;;;3.08;;
10126;SDS011;13080;42.608;23.362;2022-07-05T11:45:27;3.60;;;3.30;;
10126;SDS011;13080;42.608;23.362;2022-07-05T11:47:54;4.03;;;3.13;;
10126;SDS011;13080;42.608;23.362;2022-07-05T11:50:28;4.38;;;3.20;;
10126;SDS011;13080;42.608;23.362;2022-07-05T11:52:56;3.58;;;3.28;;
10126;SDS011;13080;42.608;23.362;2022-07-05T11:55:24;5.28;;;3.30;;
10126;SDS011;13080;42.608;23.362;2022-07-05T11:57:53;4.82;;;3.05;;
10126;SDS011;13080;42.608;23.362;2022-07-05T12:00:25;4.40;;;3.25;;
10126;SDS011;13080;42.608;23.362;2022-07-05T12:02:53;3.28;;;2.97;;
10126;SDS011;13080;42.608;23.362;2022-07-05T12:05:20;5.32;;;3.30;;
10126;SDS011;13080;42.608;23.362;2022-07-05T12:07:52;6.30;;;3.28;;
10126;SDS011;13080;42.608;23.362;2022-07-05T12:10:19;4.50;;;3.25;;
10126;SDS011;13080;42.608;23.362;2022-07-05T12:13:05;3.30;;;3.03;;
10126;SDS011;13080;42.608;23.362;2022-07-05T12:15:32;5.53;;;3.08;;
10126;SDS011;13080;42.608;23.362;2022-07-05T12:17:59;5.40;;;3.05;;
10126;SDS011;13080;42.608;23.362;2022-07-05T12:20:30;6.88;;;3.10;;
10126;SDS011;13080;42.608;23.362;2022-07-05T12:23:00;5.88;;;2.97;;
10126;SDS011;13080;42.608;23.362;2022-07-05T12:25:27;5.60;;;3.22;;
10126;SDS011;13080;42.608;23.362;2022-07-05T12:27:56;4.18;;;3.03;;
10126;SDS011;13080;42.608;23.362;2022-07-05T12:30:24;4.85;;;3.35;;
10126;SDS011;13080;42.608;23.362;2022-07-05T12:32:58;4.78;;;3.15;;
10126;SDS011;13080;42.608;23.362;2022-07-05T12:35:30;3.13;;;2.83;;
10126;SDS011;13080;42.608;23.362;2022-07-05T12:38:04;5.65;;;3.08;;
10126;SDS011;13080;42.608;23.362;2022-07-05T12:40:32;4.00;;;3.40;;
10126;SDS011;13080;42.608;23.362;2022-07-05T12:43:00;5.63;;;3.53;;
10126;SDS011;13080;42.608;23.362;2022-07-05T12:45:29;3.47;;;3.08;;
10126;SDS011;13080;42.608;23.362;2022-07-05T12:47:57;7.38;;;3.50;;
10126;SDS011;13080;42.608;23.362;2022-07-05T12:50:26;5.32;;;3.30;;
10126;SDS011;13080;42.608;23.362;2022-07-05T12:55:46;3.08;;;2.88;;
10126;SDS011;13080;42.608;23.362;2022-07-05T12:58:30;3.15;;;2.78;;
10126;SDS011;13080;42.608;23.362;2022-07-05T13:00:57;4.65;;;3.45;;
10126;SDS011;13080;42.608;23.362;2022-07-05T13:03:24;5.45;;;3.20;;
10126;SDS011;13080;42.608;23.362;2022-07-05T13:06:00;4.38;;;3.50;;
10126;SDS011;13080;42.608;23.362;2022-07-05T13:08:29;4.82;;;3.30;;
10126;SDS011;13080;42.608;23.362;2022-07-05T13:10:56;4.85;;;3.38;;
10126;SDS011;13080;42.608;23.362;2022-07-05T13:13:23;3.63;;;3.33;;
10126;SDS011;13080;42.608;23.362;2022-07-05T13:15:50;3.30;;;3.00;;
10126;SDS011;13080;42.608;23.362;2022-07-05T13:18:24;3.95;;;3.40;;
10126;SDS011;13080;42.608;23.362;2022-07-05T13:20:51;5.30;;;3.42;;
10126;SDS011;13080;42.608;23.362;2022-07-05T13:23:18;5.65;;;3.53;;
10126;SDS011;13080;42.608;23.362;2022-07-05T13:25:47;9.15;;;3.20;;
10126;SDS011;13080;42.608;23.362;2022-07-05T13:28:13;4.60;;;3.00;;
10126;SDS011;13080;42.608;23.362;2022-07-05T13:30:40;4.30;;;2.95;;
10126;SDS011;13080;42.608;23.362;2022-07-05T13:33:07;4.60;;;3.55;;
10126;SDS011;13080;42.608;23.362;2022-07-05T13:35:34;4.35;;;3.30;;
10126;SDS011;13080;42.608;23.362;2022-07-05T13:38:01;9.82;;;3.50;;
10126;SDS011;13080;42.608;23.362;2022-07-05T13:40:27;4.32;;;3.20;;
10126;SDS011;13080;42.608;23.362;2022-07-05T13:42:56;5.57;;;3.50;;
10126;SDS011;13080;42.608;23.362;2022-07-05T13:45:22;5.13;;;3.22;;
10126;SDS011;13080;42.608;23.362;2022-07-05T13:47:49;4.90;;;3.58;;
10126;SDS011;13080;42.608;23.362;2022-07-05T13:50:16;4.55;;;3.55;;
10126;SDS011;13080;42.608;23.362;2022-07-05T13:52:58;4.47;;;3.20;;
10126;SDS011;13080;42.608;23.362;2022-07-05T13:55:25;8.00;;;3.40;;
10126;SDS011;13080;42.608;23.362;2022-07-05T13:57:52;10.95;;;3.28;;
10126;SDS011;13080;42.608;23.362;2022-07-05T14:00:20;4.30;;;3.58;;
10126;SDS011;13080;42.608;23.362;2022-07-05T14:02:47;5.30;;;3.05;;
10126;SDS011;13080;42.608;23.362;2022-07-05T14:05:13;5.78;;;3.10;;
10126;SDS011;13080;42.608;23.362;2022-07-05T14:07:41;5.57;;;3.50;;
10126;SDS011;13080;42.608;23.362;2022-07-05T14:10:08;3.63;;;3.33;;
10126;SDS011;13080;42.608;23.362;2022-07-05T14:12:35;3.85;;;3.50;;
10126;SDS011;13080;42.608;23.362;2022-07-05T14:15:02;4.93;;;3.50;;
10126;SDS011;13080;42.608;23.362;2022-07-05T14:17:31;5.78;;;3.00;;
10126;SDS011;13080;42.608;23.362;2022-07-05T14:19:58;4.50;;;3.30;;
10126;SDS011;13080;42.608;23.362;2022-07-05T14:22:25;3.83;;;3.50;;
10126;SDS011;13080;42.608;23.362;2022-07-05T14:24:52;3.80;;;3.30;;
10126;SDS011;13080;42.608;23.362;2022-07-05T14:27:18;3.92;;;3.53;;
10126;SDS011;13080;42.608;23.362;2022-07-05T14:29:45;3.97;;;3.58;;
10126;SDS011;13080;42.608;23.362;2022-07-05T14:32:12;5.88;;;3.55;;
10126;SDS011;13080;42.608;23.362;2022-07-05T14:34:40;5.28;;;3.33;;
10126;SDS011;13080;42.608;23.362;2022-07-05T14:37:07;4.22;;;3.47;;
10126;SDS011;13080;42.608;23.362;2022-07-05T14:39:34;3.88;;;3.47;;
10126;SDS011;13080;42.608;23.362;2022-07-05T14:42:01;7.50;;;3.72;;
10126;SDS011;13080;42.608;23.362;2022-07-05T14:44:27;5.38;;;3.20;;
10126;SDS011;13080;42.608;23.362;2022-07-05T14:46:54;3.40;;;3.10;;
10126;SDS011;13080;42.608;23.362;2022-07-05T14:49:21;6.80;;;3.25;;